WEATHER DATA

TODAY
Time Temp. Dewp. Hum. Wind dir Wind speed Wind gust Bar. 1h Prec. 24h Prec.
00:15 -1.8 -7.2 63 152 1.4 2.8 1029.3 0.0000 0.0000
00:25 -1.9 -7.1 64 142 1.4 2.5 1029.3 0.0000 0.0000
00:35 -1.9 -7.1 64 151 1.9 3.3 1029.2 0.0000 0.0000
00:46 -1.9 -7 65 140 1.7 2.8 1029.1 0.0000 0.0000
00:55 -2 -7.1 65 139 1.1 1.9 1029.1 0.0000 0.0000
01:05 -1.9 -7.1 64 143 1.4 2.8 1029.1 0.0000 0.0000
01:16 -2 -7.1 65 142 1.9 3.1 1028.9 0.0000 0.0000
01:26 -2.1 -7.2 65 138 1.1 1.9 1028.9 0.0000 0.0000
01:36 -2.1 -7 66 140 1.1 2.2 1028.9 0.0000 0.0000
01:46 -2 -7.1 65 145 1.7 3.1 1028.8 0.0000 0.0000
01:56 -1.9 -7 65 135 1.4 1.9 1028.8 0.0000 0.0000
02:06 -2.1 -7 66 154 0.8 1.4 1028.8 0.0000 0.0000
02:16 -1.9 -7 65 154 1.4 3.1 1028.8 0.0000 0.0000
02:27 -1.8 -6.9 65 144 1.7 3.3 1028.8 0.0000 0.0000
02:36 -1.9 -7 65 155 0.8 1.7 1028.7 0.0000 0.0000
02:46 -2 -7.1 65 155 1.4 2.5 1028.8 0.0000 0.0000
02:56 -1.7 -6.9 64 150 1.7 3.1 1028.8 0.0000 0.0000
03:07 -1.8 -6.9 65 143 1.1 1.9 1028.8 0.0000 0.0000
03:17 -1.9 -7 65 147 1.1 2.2 1028.9 0.0000 0.0000
03:26 -2 -7.1 65 164 1.1 1.9 1028.8 0.0000 0.0000
03:37 -2.1 -7.2 65 153 1.4 2.8 1028.8 0.0000 0.0000
03:47 -2 -7.1 65 152 1.4 2.8 1028.8 0.0000 0.0000
03:57 -2 -7.1 65 140 1.7 2.8 1028.8 0.0000 0.0000
04:07 -2 -7.2 64 137 1.4 1.9 1028.9 0.0000 0.0000
04:17 -2 -7.2 64 142 1.4 1.9 1028.9 0.0000 0.0000
04:27 -2.2 -7.4 64 146 1.4 2.5 1028.9 0.0000 0.0000
04:37 -2.2 -7.4 64 143 1.7 2.8 1028.8 0.0000 0.0000
04:48 -2.2 -7.2 65 137 1.1 2.2 1028.8 0.0000 0.0000
04:58 -2.3 -7.5 64 138 0.8 1.9 1028.8 0.0000 0.0000
05:07 -2.3 -7.7 63 163 1.4 2.2 1028.8 0.0000 0.0000
05:17 -2.1 -7.5 63 148 1.9 3.1 1028.8 0.0000 0.0000
05:28 -2.2 -7.6 63 161 1.1 3.1 1028.8 0.0000 0.0000
05:38 -2.3 -7.7 63 164 1.1 2.2 1028.9 0.0000 0.0000
05:48 -2.3 -7.7 63 153 1.7 3.3 1028.7 0.0000 0.0000
05:58 -2.2 -7.6 63 142 1.9 3.3 1028.7 0.0000 0.0000
06:08 -2.2 -7.6 63 150 1.4 3.3 1028.7 0.0000 0.0000
06:18 -2.1 -7.7 62 142 1.7 2.5 1028.6 0.0000 0.0000
06:28 -1.9 -7.5 62 138 1.4 2.2 1028.7 0.0000 0.0000
06:38 -1.9 -7.5 62 141 1.7 2.2 1028.7 0.0000 0.0000
06:48 -1.9 -7.5 62 146 1.4 2.5 1028.8 0.0000 0.0000
06:58 -2 -7.4 63 153 1.1 2.8 1028.9 0.0000 0.0000
07:09 -2 -7.4 63 160 1.7 3.6 1028.8 0.0000 0.0000
07:19 -2.2 -7.4 64 147 1.7 3.1 1028.7 0.0000 0.0000
07:28 -2.1 -7.5 63 148 1.7 3.1 1028.6 0.0000 0.0000
07:38 -2 -7.6 62 145 2.5 3.6 1028.5 0.0000 0.0000
07:49 -1.8 -7.6 61 144 2.2 3.6 1028.4 0.0000 0.0000
07:59 -1.8 -7.6 61 137 1.9 2.8 1028.3 0.0000 0.0000
08:09 -1.7 -7.9 59 149 1.9 3.3 1028.2 0.0000 0.0000
08:19 -1.5 -7.9 58 146 2.2 3.6 1028.2 0.0000 0.0000
08:29 -1.5 -7.9 58 154 1.7 3.1 1028.3 0.0000 0.0000
08:39 -1.5 -7.7 59 132 0.6 2.2 1028.4 0.0000 0.0000
08:49 -1.4 -8 57 154 1.1 1.9 1028.5 0.0000 0.0000
09:00 -1.2 -7.8 57 153 1.4 2.5 1028.6 0.0000 0.0000
09:09 -1.1 -7.5 58 139 1.1 2.5 1028.6 0.0000 0.0000
09:19 -1 -7.4 58 135 0.3 1.1 1028.6 0.0000 0.0000
09:30 -0.8 -7.4 57 143 0.3 1.1 1028.6 0.0000 0.0000
09:40 -0.6 -7.2 57 135 0.6 1.4 1028.5 0.0000 0.0000
09:49 -0.4 -7.2 56 90 0.6 1.1 1028.5 0.0000 0.0000
09:59 -0.2 -7.1 56 150 0.6 1.4 1028.5 0.0000 0.0000
10:10 0.1 -7.2 54 90 0.6 0.8 1028.5 0.0000 0.0000
10:20 0.3 -7 54 45 0.3 0.8 1028.6 0.0000 0.0000
10:30 0.3 -6.8 55 217 0.3 0.8 1028.6 0.0000 0.0000
10:40 0.5 -6.6 55 90 0.3 0.8 1028.7 0.0000 0.0000
10:50 0.6 -6.6 55 181 0.6 0.8 1028.7 0.0000 0.0000
11:00 0.8 -6.6 54 75 0.6 0.8 1028.7 0.0000 0.0000
11:10 1.1 -6.4 54 90 0.3 0.6 1028.7 0.0000 0.0000
11:20 1.4 -6.5 52 60 0.6 1.1 1028.7 0.0000 0.0000
11:30 1.4 -6.5 52 90 0.3 0.8 1028.8 0.0000 0.0000
11:40 1.5 -6.5 52 90 0.3 0.8 1028.8 0.0000 0.0000
11:50 1.5 -6.5 52 129 0.3 0.8 1028.8 0.0000 0.0000
12:01 1.5 -6.2 53 185 0.6 0.8 1028.7 0.0000 0.0000
12:10 1.5 -6 54 195 0.6 1.4 1028.6 0.0000 0.0000
12:20 1.7 -5.6 55 195 0.6 1.4 1028.5 0.0000 0.0000
12:31 1.9 -5.7 54 90 0.6 1.1 1028.4 0.0000 0.0000
12:41 2.2 -6.1 51 90 0.6 1.4 1028.3 0.0000 0.0000
12:51 2.3 -6.3 50 10 0.6 0.8 1028.3 0.0000 0.0000
13:01 2.4 -6.2 50 13 0.6 1.1 1028.2 0.0000 0.0000
13:11 2.4 -6.2 50 45 0.3 0.8 1027.9 0.0000 0.0000
13:21 2.4 -5.7 52 356 0.3 1.1 1027.7 0.0000 0.0000
13:31 2.5 -5.4 53 236 1.1 2.8 1027.6 0.0000 0.0000
13:42 2.8 -6.1 49 212 1.9 3.9 1027.5 0.0000 0.0000
13:51 3.1 -5.8 49 212 1.7 3.6 1027.4 0.0000 0.0000
14:01 3.1 -5.6 50 246 1.1 2.5 1027.4 0.0000 0.0000
14:11 2.7 -5.7 51 355 0.8 1.4 1027.5 0.0000 0.0000
14:22 2.5 -5.9 51 15 0.6 1.1 1027.5 0.0000 0.0000
14:32 2.4 -5.7 52 28 1.1 2.2 1027.6 0.0000 0.0000
14:41 2.3 -5.6 53 48 0.8 1.7 1027.7 0.0000 0.0000
14:52 2.1 -5.5 54 221 0.6 1.1 1027.7 0.0000 0.0000
15:02 2 -5.4 55 198 0.3 0.8 1027.7 0.0000 0.0000
15:12 2.1 -5.7 53 52 0.6 1.4 1027.8 0.0000 0.0000
15:22 2.2 -5.9 52 50 0.6 0.8 1027.8 0.0000 0.0000
15:32 2.1 -6 52 42 0.6 1.1 1027.9 0.0000 0.0000
15:42 2 -5.8 53 333 0.6 0.8 1028 0.0000 0.0000
15:52 1.9 -5.5 55 180 0.6 1.4 1027.9 0.0000 0.0000
16:03 1.8 -5.6 55 183 0.6 1.4 1027.8 0.0000 0.0000
16:12 1.8 -5.6 55 158 0.8 1.9 1027.7 0.0000 0.0000
16:22 1.6 -5.7 55 180 1.1 2.8 1027.7 0.0000 0.0000
16:32 1.4 -6.1 54 152 0.8 1.7 1027.6 0.0000 0.0000
16:43 1.4 -6.1 54 138 1.4 2.8 1027.6 0.0000 0.0000
16:53 1.1 -6.4 54 142 1.4 2.5 1027.7 0.0000 0.0000
17:02 0.9 -6.5 54 144 1.1 2.2 1027.8 0.0000 0.0000
17:13 0.6 -6.8 54 149 1.7 2.8 1027.8 0.0000 0.0000
17:23 0.5 -6.9 54 144 1.4 2.5 1027.8 0.0000 0.0000
17:33 0.3 -7 54 152 1.9 3.6 1027.8 0.0000 0.0000
17:43 0.2 -7.1 54 146 1.9 3.1 1027.7 0.0000 0.0000
17:53 0 -7.3 54 146 1.4 3.3 1027.8 0.0000 0.0000
18:03 -0.1 -7.2 55 150 1.7 3.1 1027.8 0.0000 0.0000
18:13 -0.3 -7.1 56 138 1.1 2.5 1027.7 0.0000 0.0000
18:24 -0.5 -7.1 57 127 0.8 2.2 1027.8 0.0000 0.0000
18:33 -0.5 -7.1 57 135 1.1 1.9 1027.9 0.0000 0.0000
18:43 -0.5 -7.3 56 135 0.8 1.9 1027.9 0.0000 0.0000
18:53 -0.6 -7.2 57 140 1.1 2.2 1028 0.0000 0.0000
19:04 -0.8 -7.4 57 141 1.1 2.5 1028 0.0000 0.0000
19:14 -0.8 -7.6 56 152 1.4 2.2 1028 0.0000 0.0000

DAY STATISTIC

2022-01-27
TEMPERATURE
AVERAGE
-0.3
HIGH
3.1
13:51
LOW
-2.3
04:58
PRESSURE
AVERAGE
1028.4
HIGH
1029.3
00:15
LOW
1027.4
13:51
DEWPOINT
AVERAGE
-6.9
HIGH
-5.4
13:31
LOW
-8.0
08:49
HUMIDITY
AVERAGE
58
HIGH
66
01:36
LOW
49
13:42
WIND SPEED
AVERAGE
1.1
HIGH
2.5
07:38
WIND GUST
AVERAGE
2.1
HIGH
3.9
13:42
WIND DIRECTION
PREVAILING
SE
62.3%
N
4.4
NE
7.0
E
7.9
SE
62.3
S
12.3
SW
5.3
W
0.0
NW
0.9
PRECIPITATION
RAIN HOUR
0.0
RAIN DAY
0.0
TEMPERATURE (°C)
LOW
-2.3
HIGH
3.1
AVERAGE
-0.3
PRESSURE (hpa)
LOW
1027.4
HIGH
1029.3
AVERAGE
1028.4
DEVICE